sensor_id;sensor_type;location;lat;lon;timestamp;P1;durP1;ratioP1;P2;durP2;ratioP2
54977;SDS011;40873;47.522;19.106;2022-10-31T00:00:48;56.10;;;24.73;;
54977;SDS011;40873;47.522;19.106;2022-10-31T00:03:34;63.95;;;23.77;;
54977;SDS011;40873;47.522;19.106;2022-10-31T00:06:01;70.35;;;23.98;;
54977;SDS011;40873;47.522;19.106;2022-10-31T00:08:28;58.88;;;24.00;;
54977;SDS011;40873;47.522;19.106;2022-10-31T00:10:55;65.15;;;25.55;;
54977;SDS011;40873;47.522;19.106;2022-10-31T00:13:22;69.80;;;25.73;;
54977;SDS011;40873;47.522;19.106;2022-10-31T00:15:48;61.63;;;26.92;;
54977;SDS011;40873;47.522;19.106;2022-10-31T00:18:15;70.43;;;26.02;;
54977;SDS011;40873;47.522;19.106;2022-10-31T00:20:42;75.18;;;26.33;;
54977;SDS011;40873;47.522;19.106;2022-10-31T00:23:09;70.50;;;28.05;;
54977;SDS011;40873;47.522;19.106;2022-10-31T00:25:38;64.15;;;24.63;;
54977;SDS011;40873;47.522;19.106;2022-10-31T00:28:06;66.13;;;26.58;;
54977;SDS011;40873;47.522;19.106;2022-10-31T00:30:35;65.53;;;24.15;;
54977;SDS011;40873;47.522;19.106;2022-10-31T00:33:03;73.50;;;26.75;;
54977;SDS011;40873;47.522;19.106;2022-10-31T00:35:30;69.25;;;26.20;;
54977;SDS011;40873;47.522;19.106;2022-10-31T00:37:57;70.03;;;26.80;;
54977;SDS011;40873;47.522;19.106;2022-10-31T00:40:24;73.78;;;27.25;;
54977;SDS011;40873;47.522;19.106;2022-10-31T00:42:51;75.70;;;27.63;;
54977;SDS011;40873;47.522;19.106;2022-10-31T00:45:18;72.80;;;26.48;;
54977;SDS011;40873;47.522;19.106;2022-10-31T00:47:45;70.97;;;26.50;;
54977;SDS011;40873;47.522;19.106;2022-10-31T00:50:12;74.00;;;28.75;;
54977;SDS011;40873;47.522;19.106;2022-10-31T00:52:39;72.68;;;26.63;;
54977;SDS011;40873;47.522;19.106;2022-10-31T00:55:06;72.63;;;28.50;;
54977;SDS011;40873;47.522;19.106;2022-10-31T00:57:33;65.47;;;27.13;;
54977;SDS011;40873;47.522;19.106;2022-10-31T01:00:00;76.63;;;28.50;;
54977;SDS011;40873;47.522;19.106;2022-10-31T01:02:27;76.68;;;27.33;;
54977;SDS011;40873;47.522;19.106;2022-10-31T01:04:54;69.10;;;26.15;;
54977;SDS011;40873;47.522;19.106;2022-10-31T01:07:20;68.05;;;25.27;;
54977;SDS011;40873;47.522;19.106;2022-10-31T01:09:47;69.72;;;25.23;;
54977;SDS011;40873;47.522;19.106;2022-10-31T01:12:14;76.72;;;28.00;;
54977;SDS011;40873;47.522;19.106;2022-10-31T01:14:44;72.82;;;27.55;;
54977;SDS011;40873;47.522;19.106;2022-10-31T01:17:12;68.60;;;26.58;;
54977;SDS011;40873;47.522;19.106;2022-10-31T01:19:39;63.08;;;25.40;;
54977;SDS011;40873;47.522;19.106;2022-10-31T01:22:06;86.32;;;30.52;;
54977;SDS011;40873;47.522;19.106;2022-10-31T01:24:33;80.75;;;26.27;;
54977;SDS011;40873;47.522;19.106;2022-10-31T01:27:00;72.30;;;26.20;;
54977;SDS011;40873;47.522;19.106;2022-10-31T01:29:27;82.93;;;28.20;;
54977;SDS011;40873;47.522;19.106;2022-10-31T01:31:54;76.57;;;26.45;;
54977;SDS011;40873;47.522;19.106;2022-10-31T01:34:21;73.07;;;27.33;;
54977;SDS011;40873;47.522;19.106;2022-10-31T01:36:48;77.88;;;25.67;;
54977;SDS011;40873;47.522;19.106;2022-10-31T01:39:18;73.22;;;27.58;;
54977;SDS011;40873;47.522;19.106;2022-10-31T01:41:49;75.07;;;26.73;;
54977;SDS011;40873;47.522;19.106;2022-10-31T01:46:46;70.55;;;26.63;;
54977;SDS011;40873;47.522;19.106;2022-10-31T01:54:41;76.15;;;23.73;;
54977;SDS011;40873;47.522;19.106;2022-10-31T01:57:12;67.00;;;23.90;;
54977;SDS011;40873;47.522;19.106;2022-10-31T01:59:43;77.43;;;25.13;;
54977;SDS011;40873;47.522;19.106;2022-10-31T02:02:14;64.72;;;24.45;;
54977;SDS011;40873;47.522;19.106;2022-10-31T02:04:43;70.43;;;25.23;;
54977;SDS011;40873;47.522;19.106;2022-10-31T02:07:12;68.32;;;24.80;;
54977;SDS011;40873;47.522;19.106;2022-10-31T02:09:43;77.03;;;25.25;;
54977;SDS011;40873;47.522;19.106;2022-10-31T02:12:12;60.67;;;20.48;;
54977;SDS011;40873;47.522;19.106;2022-10-31T02:14:41;69.88;;;25.00;;
54977;SDS011;40873;47.522;19.106;2022-10-31T02:17:08;69.32;;;23.58;;
54977;SDS011;40873;47.522;19.106;2022-10-31T02:22:50;65.95;;;24.00;;
54977;SDS011;40873;47.522;19.106;2022-10-31T02:33:52;55.90;;;21.73;;
54977;SDS011;40873;47.522;19.106;2022-10-31T02:36:28;65.00;;;23.25;;
54977;SDS011;40873;47.522;19.106;2022-10-31T02:47:12;59.65;;;21.65;;
54977;SDS011;40873;47.522;19.106;2022-10-31T02:49:45;55.42;;;19.50;;
54977;SDS011;40873;47.522;19.106;2022-10-31T02:52:21;56.38;;;19.83;;
54977;SDS011;40873;47.522;19.106;2022-10-31T02:54:51;49.55;;;19.33;;
54977;SDS011;40873;47.522;19.106;2022-10-31T02:57:20;45.33;;;19.27;;
54977;SDS011;40873;47.522;19.106;2022-10-31T02:59:53;47.22;;;19.77;;
54977;SDS011;40873;47.522;19.106;2022-10-31T03:13:41;48.85;;;17.63;;
54977;SDS011;40873;47.522;19.106;2022-10-31T03:19:17;40.83;;;16.55;;
54977;SDS011;40873;47.522;19.106;2022-10-31T03:21:57;34.08;;;14.70;;
54977;SDS011;40873;47.522;19.106;2022-10-31T03:24:31;36.08;;;14.20;;
54977;SDS011;40873;47.522;19.106;2022-10-31T03:27:02;38.78;;;15.63;;
54977;SDS011;40873;47.522;19.106;2022-10-31T03:29:32;33.38;;;14.35;;
54977;SDS011;40873;47.522;19.106;2022-10-31T03:32:04;47.70;;;16.38;;
54977;SDS011;40873;47.522;19.106;2022-10-31T03:34:37;45.45;;;16.75;;
54977;SDS011;40873;47.522;19.106;2022-10-31T03:37:09;36.97;;;16.35;;
54977;SDS011;40873;47.522;19.106;2022-10-31T03:39:38;46.03;;;16.55;;
54977;SDS011;40873;47.522;19.106;2022-10-31T03:42:13;42.17;;;15.43;;
54977;SDS011;40873;47.522;19.106;2022-10-31T03:44:44;44.33;;;15.43;;
54977;SDS011;40873;47.522;19.106;2022-10-31T03:47:17;41.85;;;16.42;;
54977;SDS011;40873;47.522;19.106;2022-10-31T03:49:44;32.13;;;13.23;;
54977;SDS011;40873;47.522;19.106;2022-10-31T03:52:27;39.50;;;14.63;;
54977;SDS011;40873;47.522;19.106;2022-10-31T03:54:59;33.78;;;15.55;;
54977;SDS011;40873;47.522;19.106;2022-10-31T03:57:54;36.00;;;14.00;;
54977;SDS011;40873;47.522;19.106;2022-10-31T04:00:26;35.92;;;15.70;;
54977;SDS011;40873;47.522;19.106;2022-10-31T04:02:55;40.53;;;16.73;;
54977;SDS011;40873;47.522;19.106;2022-10-31T04:05:28;36.70;;;14.48;;
54977;SDS011;40873;47.522;19.106;2022-10-31T04:07:57;33.55;;;15.68;;
54977;SDS011;40873;47.522;19.106;2022-10-31T04:10:26;37.03;;;14.88;;
54977;SDS011;40873;47.522;19.106;2022-10-31T04:13:03;36.05;;;15.50;;
54977;SDS011;40873;47.522;19.106;2022-10-31T04:15:34;34.00;;;14.88;;
54977;SDS011;40873;47.522;19.106;2022-10-31T04:18:02;35.60;;;13.95;;
54977;SDS011;40873;47.522;19.106;2022-10-31T04:20:32;37.25;;;15.85;;
54977;SDS011;40873;47.522;19.106;2022-10-31T04:23:01;34.42;;;15.13;;
54977;SDS011;40873;47.522;19.106;2022-10-31T04:25:29;43.03;;;17.17;;
54977;SDS011;40873;47.522;19.106;2022-10-31T04:27:56;36.63;;;15.57;;
54977;SDS011;40873;47.522;19.106;2022-10-31T04:30:24;38.90;;;14.63;;
54977;SDS011;40873;47.522;19.106;2022-10-31T04:32:50;34.47;;;15.50;;
54977;SDS011;40873;47.522;19.106;2022-10-31T04:35:17;40.00;;;15.15;;
54977;SDS011;40873;47.522;19.106;2022-10-31T04:37:44;39.80;;;14.85;;
54977;SDS011;40873;47.522;19.106;2022-10-31T04:40:11;33.67;;;14.32;;
54977;SDS011;40873;47.522;19.106;2022-10-31T04:42:38;36.10;;;15.43;;
54977;SDS011;40873;47.522;19.106;2022-10-31T04:45:05;37.40;;;14.55;;
54977;SDS011;40873;47.522;19.106;2022-10-31T04:47:32;35.58;;;14.55;;
54977;SDS011;40873;47.522;19.106;2022-10-31T04:50:00;30.33;;;13.38;;
54977;SDS011;40873;47.522;19.106;2022-10-31T04:52:27;33.08;;;13.73;;
54977;SDS011;40873;47.522;19.106;2022-10-31T04:54:54;37.25;;;15.07;;
54977;SDS011;40873;47.522;19.106;2022-10-31T04:57:21;33.67;;;14.02;;
54977;SDS011;40873;47.522;19.106;2022-10-31T04:59:48;31.75;;;12.85;;
54977;SDS011;40873;47.522;19.106;2022-10-31T05:02:15;26.42;;;12.50;;
54977;SDS011;40873;47.522;19.106;2022-10-31T05:04:42;35.63;;;13.93;;
54977;SDS011;40873;47.522;19.106;2022-10-31T05:07:09;31.90;;;13.45;;
54977;SDS011;40873;47.522;19.106;2022-10-31T05:09:36;33.35;;;15.07;;
54977;SDS011;40873;47.522;19.106;2022-10-31T05:12:03;30.38;;;12.88;;
54977;SDS011;40873;47.522;19.106;2022-10-31T05:14:30;35.53;;;13.63;;
54977;SDS011;40873;47.522;19.106;2022-10-31T05:16:57;31.42;;;14.77;;
54977;SDS011;40873;47.522;19.106;2022-10-31T05:19:23;34.28;;;13.95;;
54977;SDS011;40873;47.522;19.106;2022-10-31T05:21:50;35.83;;;14.80;;
54977;SDS011;40873;47.522;19.106;2022-10-31T05:24:17;36.38;;;13.82;;
54977;SDS011;40873;47.522;19.106;2022-10-31T05:26:44;35.55;;;14.32;;
54977;SDS011;40873;47.522;19.106;2022-10-31T05:29:11;33.88;;;13.70;;
54977;SDS011;40873;47.522;19.106;2022-10-31T05:31:38;35.25;;;14.45;;
54977;SDS011;40873;47.522;19.106;2022-10-31T05:34:04;40.40;;;15.77;;
54977;SDS011;40873;47.522;19.106;2022-10-31T05:36:32;38.70;;;13.98;;
54977;SDS011;40873;47.522;19.106;2022-10-31T05:38:58;28.88;;;12.95;;
54977;SDS011;40873;47.522;19.106;2022-10-31T05:41:25;30.85;;;13.00;;
54977;SDS011;40873;47.522;19.106;2022-10-31T05:43:52;36.75;;;13.95;;
54977;SDS011;40873;47.522;19.106;2022-10-31T05:46:19;39.38;;;14.77;;
54977;SDS011;40873;47.522;19.106;2022-10-31T05:48:46;35.10;;;13.43;;
54977;SDS011;40873;47.522;19.106;2022-10-31T05:51:13;35.08;;;14.40;;
54977;SDS011;40873;47.522;19.106;2022-10-31T05:53:40;34.03;;;13.32;;
54977;SDS011;40873;47.522;19.106;2022-10-31T05:56:07;35.22;;;13.63;;
54977;SDS011;40873;47.522;19.106;2022-10-31T05:58:34;32.20;;;12.38;;
54977;SDS011;40873;47.522;19.106;2022-10-31T06:01:00;32.05;;;13.18;;
54977;SDS011;40873;47.522;19.106;2022-10-31T06:03:27;32.90;;;12.55;;
54977;SDS011;40873;47.522;19.106;2022-10-31T06:05:54;29.48;;;12.80;;
54977;SDS011;40873;47.522;19.106;2022-10-31T06:08:21;28.27;;;13.18;;
54977;SDS011;40873;47.522;19.106;2022-10-31T06:10:48;36.58;;;13.02;;
54977;SDS011;40873;47.522;19.106;2022-10-31T06:13:15;33.45;;;13.23;;
54977;SDS011;40873;47.522;19.106;2022-10-31T06:15:42;34.67;;;13.88;;
54977;SDS011;40873;47.522;19.106;2022-10-31T06:18:09;31.40;;;12.45;;
54977;SDS011;40873;47.522;19.106;2022-10-31T06:20:36;29.65;;;13.23;;
54977;SDS011;40873;47.522;19.106;2022-10-31T06:23:03;32.45;;;12.02;;
54977;SDS011;40873;47.522;19.106;2022-10-31T06:25:31;26.45;;;12.60;;
54977;SDS011;40873;47.522;19.106;2022-10-31T06:27:59;28.60;;;14.02;;
54977;SDS011;40873;47.522;19.106;2022-10-31T06:30:26;28.58;;;11.93;;
54977;SDS011;40873;47.522;19.106;2022-10-31T06:32:53;27.73;;;11.88;;
54977;SDS011;40873;47.522;19.106;2022-10-31T06:35:20;25.75;;;11.75;;
54977;SDS011;40873;47.522;19.106;2022-10-31T06:37:50;29.73;;;11.25;;
54977;SDS011;40873;47.522;19.106;2022-10-31T06:42:55;19.40;;;9.32;;
54977;SDS011;40873;47.522;19.106;2022-10-31T06:45:23;29.17;;;11.30;;
54977;SDS011;40873;47.522;19.106;2022-10-31T06:47:50;26.05;;;10.98;;
54977;SDS011;40873;47.522;19.106;2022-10-31T06:50:41;25.85;;;11.68;;
54977;SDS011;40873;47.522;19.106;2022-10-31T06:53:08;26.50;;;10.75;;
54977;SDS011;40873;47.522;19.106;2022-10-31T06:55:36;24.90;;;10.52;;
54977;SDS011;40873;47.522;19.106;2022-10-31T06:58:03;25.35;;;9.60;;
54977;SDS011;40873;47.522;19.106;2022-10-31T07:00:30;24.58;;;10.02;;
54977;SDS011;40873;47.522;19.106;2022-10-31T07:03:01;21.73;;;10.18;;
54977;SDS011;40873;47.522;19.106;2022-10-31T07:05:30;21.58;;;9.45;;
54977;SDS011;40873;47.522;19.106;2022-10-31T07:08:01;25.27;;;10.88;;
54977;SDS011;40873;47.522;19.106;2022-10-31T07:10:31;25.23;;;10.38;;
54977;SDS011;40873;47.522;19.106;2022-10-31T07:13:06;31.55;;;13.05;;
54977;SDS011;40873;47.522;19.106;2022-10-31T07:15:37;20.00;;;10.82;;
54977;SDS011;40873;47.522;19.106;2022-10-31T07:18:06;25.92;;;12.77;;
54977;SDS011;40873;47.522;19.106;2022-10-31T07:20:34;31.67;;;11.43;;
54977;SDS011;40873;47.522;19.106;2022-10-31T07:23:01;22.77;;;11.63;;
54977;SDS011;40873;47.522;19.106;2022-10-31T07:25:29;29.48;;;11.93;;
54977;SDS011;40873;47.522;19.106;2022-10-31T07:27:58;31.02;;;12.85;;
54977;SDS011;40873;47.522;19.106;2022-10-31T07:30:26;25.33;;;12.93;;
54977;SDS011;40873;47.522;19.106;2022-10-31T07:32:53;33.00;;;13.40;;
54977;SDS011;40873;47.522;19.106;2022-10-31T07:35:21;27.40;;;11.70;;
54977;SDS011;40873;47.522;19.106;2022-10-31T07:37:55;31.65;;;13.60;;
54977;SDS011;40873;47.522;19.106;2022-10-31T07:40:23;35.67;;;14.60;;
54977;SDS011;40873;47.522;19.106;2022-10-31T07:42:51;29.27;;;13.52;;
54977;SDS011;40873;47.522;19.106;2022-10-31T07:45:21;29.40;;;14.52;;
54977;SDS011;40873;47.522;19.106;2022-10-31T07:47:49;34.30;;;13.80;;
54977;SDS011;40873;47.522;19.106;2022-10-31T07:52:46;28.10;;;12.75;;
54977;SDS011;40873;47.522;19.106;2022-10-31T07:55:13;35.47;;;12.88;;
54977;SDS011;40873;47.522;19.106;2022-10-31T07:57:41;28.38;;;12.10;;
54977;SDS011;40873;47.522;19.106;2022-10-31T08:00:09;28.67;;;11.80;;
54977;SDS011;40873;47.522;19.106;2022-10-31T08:02:36;30.85;;;12.90;;
54977;SDS011;40873;47.522;19.106;2022-10-31T08:05:03;28.98;;;13.93;;
54977;SDS011;40873;47.522;19.106;2022-10-31T08:07:35;31.85;;;14.10;;
54977;SDS011;40873;47.522;19.106;2022-10-31T08:10:04;38.38;;;14.70;;
54977;SDS011;40873;47.522;19.106;2022-10-31T08:12:31;28.83;;;13.40;;
54977;SDS011;40873;47.522;19.106;2022-10-31T08:14:58;33.75;;;13.80;;
54977;SDS011;40873;47.522;19.106;2022-10-31T08:17:25;33.60;;;13.68;;
54977;SDS011;40873;47.522;19.106;2022-10-31T08:19:52;33.85;;;13.45;;
54977;SDS011;40873;47.522;19.106;2022-10-31T08:22:18;33.42;;;12.98;;
54977;SDS011;40873;47.522;19.106;2022-10-31T08:24:45;34.28;;;14.27;;
54977;SDS011;40873;47.522;19.106;2022-10-31T08:27:12;34.00;;;13.90;;
54977;SDS011;40873;47.522;19.106;2022-10-31T08:29:39;37.53;;;13.85;;
54977;SDS011;40873;47.522;19.106;2022-10-31T08:32:06;37.45;;;13.68;;
54977;SDS011;40873;47.522;19.106;2022-10-31T08:34:33;33.30;;;14.90;;
54977;SDS011;40873;47.522;19.106;2022-10-31T08:37:00;39.33;;;13.98;;
54977;SDS011;40873;47.522;19.106;2022-10-31T08:39:27;32.90;;;15.15;;
54977;SDS011;40873;47.522;19.106;2022-10-31T08:41:54;37.00;;;14.95;;
54977;SDS011;40873;47.522;19.106;2022-10-31T08:44:21;33.72;;;14.75;;
54977;SDS011;40873;47.522;19.106;2022-10-31T08:46:47;35.20;;;14.73;;
54977;SDS011;40873;47.522;19.106;2022-10-31T08:49:14;40.75;;;16.40;;
54977;SDS011;40873;47.522;19.106;2022-10-31T08:51:41;36.67;;;14.27;;
54977;SDS011;40873;47.522;19.106;2022-10-31T08:54:08;36.80;;;14.73;;
54977;SDS011;40873;47.522;19.106;2022-10-31T08:56:35;40.35;;;14.27;;
54977;SDS011;40873;47.522;19.106;2022-10-31T08:59:02;44.67;;;15.32;;
54977;SDS011;40873;47.522;19.106;2022-10-31T09:01:28;42.47;;;14.88;;
54977;SDS011;40873;47.522;19.106;2022-10-31T09:03:56;36.80;;;15.10;;
54977;SDS011;40873;47.522;19.106;2022-10-31T09:06:23;38.90;;;15.75;;
54977;SDS011;40873;47.522;19.106;2022-10-31T09:08:53;45.38;;;17.15;;
54977;SDS011;40873;47.522;19.106;2022-10-31T09:11:20;38.42;;;15.73;;
54977;SDS011;40873;47.522;19.106;2022-10-31T09:13:46;36.90;;;15.32;;
54977;SDS011;40873;47.522;19.106;2022-10-31T09:16:13;42.22;;;16.80;;
54977;SDS011;40873;47.522;19.106;2022-10-31T09:18:40;45.47;;;18.55;;
54977;SDS011;40873;47.522;19.106;2022-10-31T09:21:07;43.72;;;16.83;;
54977;SDS011;40873;47.522;19.106;2022-10-31T09:23:34;37.97;;;15.85;;
54977;SDS011;40873;47.522;19.106;2022-10-31T09:26:01;43.50;;;16.23;;
54977;SDS011;40873;47.522;19.106;2022-10-31T09:28:28;45.08;;;15.88;;
54977;SDS011;40873;47.522;19.106;2022-10-31T09:30:55;35.47;;;15.13;;
54977;SDS011;40873;47.522;19.106;2022-10-31T09:33:22;37.03;;;15.18;;
54977;SDS011;40873;47.522;19.106;2022-10-31T09:35:49;44.28;;;17.45;;
54977;SDS011;40873;47.522;19.106;2022-10-31T09:38:20;36.22;;;15.00;;
54977;SDS011;40873;47.522;19.106;2022-10-31T09:40:49;42.55;;;17.38;;
54977;SDS011;40873;47.522;19.106;2022-10-31T09:43:37;38.13;;;15.50;;
54977;SDS011;40873;47.522;19.106;2022-10-31T09:49:09;36.35;;;16.27;;
54977;SDS011;40873;47.522;19.106;2022-10-31T09:51:43;41.33;;;16.13;;
54977;SDS011;40873;47.522;19.106;2022-10-31T09:54:20;41.35;;;15.60;;
54977;SDS011;40873;47.522;19.106;2022-10-31T09:56:53;47.95;;;17.38;;
54977;SDS011;40873;47.522;19.106;2022-10-31T09:59:28;36.65;;;16.25;;
54977;SDS011;40873;47.522;19.106;2022-10-31T10:10:17;41.72;;;16.75;;
54977;SDS011;40873;47.522;19.106;2022-10-31T10:12:49;37.38;;;15.55;;
54977;SDS011;40873;47.522;19.106;2022-10-31T10:18:23;43.92;;;16.90;;
54977;SDS011;40873;47.522;19.106;2022-10-31T10:21:02;39.08;;;15.73;;
54977;SDS011;40873;47.522;19.106;2022-10-31T10:23:55;39.30;;;15.15;;
54977;SDS011;40873;47.522;19.106;2022-10-31T10:26:47;38.80;;;15.48;;
54977;SDS011;40873;47.522;19.106;2022-10-31T10:29:53;42.45;;;16.48;;
54977;SDS011;40873;47.522;19.106;2022-10-31T10:32:25;39.63;;;14.85;;
54977;SDS011;40873;47.522;19.106;2022-10-31T10:35:03;46.60;;;17.67;;
54977;SDS011;40873;47.522;19.106;2022-10-31T10:37:54;45.50;;;17.83;;
54977;SDS011;40873;47.522;19.106;2022-10-31T10:40:29;39.55;;;16.98;;
54977;SDS011;40873;47.522;19.106;2022-10-31T10:43:19;37.00;;;15.02;;
54977;SDS011;40873;47.522;19.106;2022-10-31T10:45:55;40.00;;;15.45;;
54977;SDS011;40873;47.522;19.106;2022-10-31T11:00:23;37.45;;;16.15;;
54977;SDS011;40873;47.522;19.106;2022-10-31T11:02:56;44.45;;;15.20;;
54977;SDS011;40873;47.522;19.106;2022-10-31T11:07:59;45.60;;;15.88;;
54977;SDS011;40873;47.522;19.106;2022-10-31T11:10:27;36.97;;;15.70;;
54977;SDS011;40873;47.522;19.106;2022-10-31T11:13:17;40.58;;;14.80;;
54977;SDS011;40873;47.522;19.106;2022-10-31T11:16:03;38.13;;;15.38;;
54977;SDS011;40873;47.522;19.106;2022-10-31T11:18:31;43.17;;;16.02;;
54977;SDS011;40873;47.522;19.106;2022-10-31T11:21:02;32.38;;;14.95;;
54977;SDS011;40873;47.522;19.106;2022-10-31T11:23:31;33.55;;;15.23;;
54977;SDS011;40873;47.522;19.106;2022-10-31T11:26:00;32.20;;;15.35;;
54977;SDS011;40873;47.522;19.106;2022-10-31T11:28:29;30.98;;;14.40;;
54977;SDS011;40873;47.522;19.106;2022-10-31T11:30:59;38.30;;;15.98;;
54977;SDS011;40873;47.522;19.106;2022-10-31T11:36:24;29.48;;;13.18;;
54977;SDS011;40873;47.522;19.106;2022-10-31T11:38:52;34.30;;;13.77;;
54977;SDS011;40873;47.522;19.106;2022-10-31T11:41:30;31.45;;;14.73;;
54977;SDS011;40873;47.522;19.106;2022-10-31T11:44:11;32.65;;;13.93;;
54977;SDS011;40873;47.522;19.106;2022-10-31T11:46:48;39.28;;;14.68;;
54977;SDS011;40873;47.522;19.106;2022-10-31T11:49:37;30.33;;;14.55;;
54977;SDS011;40873;47.522;19.106;2022-10-31T11:52:12;30.27;;;13.75;;
54977;SDS011;40873;47.522;19.106;2022-10-31T11:57:25;31.20;;;15.52;;
54977;SDS011;40873;47.522;19.106;2022-10-31T11:59:58;33.33;;;13.70;;
54977;SDS011;40873;47.522;19.106;2022-10-31T12:02:27;33.97;;;14.50;;
54977;SDS011;40873;47.522;19.106;2022-10-31T12:04:57;28.27;;;12.63;;
54977;SDS011;40873;47.522;19.106;2022-10-31T12:07:37;32.30;;;14.68;;
54977;SDS011;40873;47.522;19.106;2022-10-31T12:10:10;33.92;;;13.52;;
54977;SDS011;40873;47.522;19.106;2022-10-31T12:12:48;28.60;;;12.50;;
54977;SDS011;40873;47.522;19.106;2022-10-31T12:15:45;30.92;;;14.65;;
54977;SDS011;40873;47.522;19.106;2022-10-31T12:18:24;26.23;;;13.13;;
54977;SDS011;40873;47.522;19.106;2022-10-31T12:21:15;25.20;;;12.48;;
54977;SDS011;40873;47.522;19.106;2022-10-31T12:23:55;25.48;;;13.25;;
54977;SDS011;40873;47.522;19.106;2022-10-31T12:26:38;28.58;;;13.55;;
54977;SDS011;40873;47.522;19.106;2022-10-31T12:47:03;31.15;;;13.85;;
54977;SDS011;40873;47.522;19.106;2022-10-31T12:52:29;29.83;;;14.40;;
54977;SDS011;40873;47.522;19.106;2022-10-31T12:57:50;30.35;;;13.60;;
54977;SDS011;40873;47.522;19.106;2022-10-31T13:00:19;30.80;;;15.52;;
54977;SDS011;40873;47.522;19.106;2022-10-31T13:05:43;24.98;;;14.10;;
54977;SDS011;40873;47.522;19.106;2022-10-31T13:08:17;33.75;;;15.30;;
54977;SDS011;40873;47.522;19.106;2022-10-31T13:10:52;32.22;;;13.90;;
54977;SDS011;40873;47.522;19.106;2022-10-31T13:13:39;28.85;;;13.90;;
54977;SDS011;40873;47.522;19.106;2022-10-31T13:16:11;30.45;;;13.93;;
54977;SDS011;40873;47.522;19.106;2022-10-31T13:18:47;23.23;;;13.15;;
54977;SDS011;40873;47.522;19.106;2022-10-31T13:21:21;26.30;;;12.80;;
54977;SDS011;40873;47.522;19.106;2022-10-31T13:23:51;25.02;;;12.85;;
54977;SDS011;40873;47.522;19.106;2022-10-31T13:26:28;26.45;;;12.07;;
54977;SDS011;40873;47.522;19.106;2022-10-31T13:29:17;21.58;;;11.70;;
54977;SDS011;40873;47.522;19.106;2022-10-31T13:31:52;19.65;;;11.32;;
54977;SDS011;40873;47.522;19.106;2022-10-31T13:37:13;24.40;;;12.45;;
54977;SDS011;40873;47.522;19.106;2022-10-31T13:43:06;27.70;;;13.77;;
54977;SDS011;40873;47.522;19.106;2022-10-31T13:45:50;25.13;;;12.82;;
54977;SDS011;40873;47.522;19.106;2022-10-31T13:48:28;24.05;;;12.68;;
54977;SDS011;40873;47.522;19.106;2022-10-31T13:51:03;21.20;;;12.23;;
54977;SDS011;40873;47.522;19.106;2022-10-31T13:53:41;27.35;;;12.30;;
54977;SDS011;40873;47.522;19.106;2022-10-31T13:56:16;25.30;;;13.30;;
54977;SDS011;40873;47.522;19.106;2022-10-31T14:02:02;21.77;;;11.18;;
54977;SDS011;40873;47.522;19.106;2022-10-31T14:04:47;20.80;;;11.88;;
54977;SDS011;40873;47.522;19.106;2022-10-31T14:07:17;25.75;;;12.35;;
54977;SDS011;40873;47.522;19.106;2022-10-31T14:12:30;29.67;;;14.25;;
54977;SDS011;40873;47.522;19.106;2022-10-31T14:15:15;22.63;;;12.70;;
54977;SDS011;40873;47.522;19.106;2022-10-31T14:17:52;27.90;;;12.40;;
54977;SDS011;40873;47.522;19.106;2022-10-31T14:22:52;27.75;;;12.52;;
54977;SDS011;40873;47.522;19.106;2022-10-31T14:25:35;25.80;;;12.15;;
54977;SDS011;40873;47.522;19.106;2022-10-31T14:28:20;23.33;;;11.18;;
54977;SDS011;40873;47.522;19.106;2022-10-31T14:30:55;24.70;;;11.23;;
54977;SDS011;40873;47.522;19.106;2022-10-31T14:33:27;26.55;;;12.70;;
54977;SDS011;40873;47.522;19.106;2022-10-31T14:36:17;19.95;;;10.77;;
54977;SDS011;40873;47.522;19.106;2022-10-31T14:38:57;22.58;;;11.00;;
54977;SDS011;40873;47.522;19.106;2022-10-31T14:41:45;21.15;;;12.45;;
54977;SDS011;40873;47.522;19.106;2022-10-31T14:50:48;23.95;;;12.85;;
54977;SDS011;40873;47.522;19.106;2022-10-31T14:52:50;24.70;;;12.95;;
54977;SDS011;40873;47.522;19.106;2022-10-31T14:55:20;21.08;;;10.90;;
54977;SDS011;40873;47.522;19.106;2022-10-31T14:57:52;25.92;;;12.05;;
54977;SDS011;40873;47.522;19.106;2022-10-31T15:00:27;22.50;;;10.65;;
54977;SDS011;40873;47.522;19.106;2022-10-31T15:05:44;28.63;;;15.98;;
54977;SDS011;40873;47.522;19.106;2022-10-31T15:08:39;29.27;;;14.30;;
54977;SDS011;40873;47.522;19.106;2022-10-31T15:14:16;28.20;;;11.93;;
54977;SDS011;40873;47.522;19.106;2022-10-31T15:16:43;26.50;;;11.38;;
54977;SDS011;40873;47.522;19.106;2022-10-31T15:19:10;24.52;;;11.73;;
54977;SDS011;40873;47.522;19.106;2022-10-31T15:21:43;25.00;;;13.13;;
54977;SDS011;40873;47.522;19.106;2022-10-31T15:24:13;25.02;;;11.10;;
54977;SDS011;40873;47.522;19.106;2022-10-31T15:26:45;28.20;;;12.40;;
54977;SDS011;40873;47.522;19.106;2022-10-31T15:29:19;23.05;;;12.90;;
54977;SDS011;40873;47.522;19.106;2022-10-31T15:31:53;26.35;;;13.30;;
54977;SDS011;40873;47.522;19.106;2022-10-31T15:34:25;19.85;;;12.27;;
54977;SDS011;40873;47.522;19.106;2022-10-31T15:36:59;31.75;;;12.77;;
54977;SDS011;40873;47.522;19.106;2022-10-31T15:39:26;25.42;;;12.45;;
54977;SDS011;40873;47.522;19.106;2022-10-31T15:41:54;25.13;;;12.60;;
54977;SDS011;40873;47.522;19.106;2022-10-31T15:46:55;28.95;;;12.65;;
54977;SDS011;40873;47.522;19.106;2022-10-31T15:49:29;25.50;;;11.93;;
54977;SDS011;40873;47.522;19.106;2022-10-31T15:52:14;20.95;;;11.85;;
54977;SDS011;40873;47.522;19.106;2022-10-31T15:54:48;26.58;;;12.40;;
54977;SDS011;40873;47.522;19.106;2022-10-31T15:57:18;28.27;;;11.65;;
54977;SDS011;40873;47.522;19.106;2022-10-31T15:59:46;24.27;;;11.95;;
54977;SDS011;40873;47.522;19.106;2022-10-31T16:02:17;23.00;;;10.57;;
54977;SDS011;40873;47.522;19.106;2022-10-31T16:04:48;23.38;;;11.40;;
54977;SDS011;40873;47.522;19.106;2022-10-31T16:07:23;24.05;;;10.70;;
54977;SDS011;40873;47.522;19.106;2022-10-31T16:09:52;21.67;;;10.70;;
54977;SDS011;40873;47.522;19.106;2022-10-31T16:12:24;21.47;;;11.33;;
54977;SDS011;40873;47.522;19.106;2022-10-31T16:14:56;21.58;;;11.05;;
54977;SDS011;40873;47.522;19.106;2022-10-31T16:17:24;23.70;;;10.88;;
54977;SDS011;40873;47.522;19.106;2022-10-31T16:19:59;27.00;;;12.10;;
54977;SDS011;40873;47.522;19.106;2022-10-31T16:22:29;19.52;;;10.27;;
54977;SDS011;40873;47.522;19.106;2022-10-31T16:25:12;22.50;;;11.30;;
54977;SDS011;40873;47.522;19.106;2022-10-31T16:27:48;26.30;;;12.18;;
54977;SDS011;40873;47.522;19.106;2022-10-31T16:32:59;23.88;;;11.20;;
54977;SDS011;40873;47.522;19.106;2022-10-31T16:35:37;27.23;;;11.93;;
54977;SDS011;40873;47.522;19.106;2022-10-31T16:38:05;24.20;;;11.30;;
54977;SDS011;40873;47.522;19.106;2022-10-31T16:40:32;27.58;;;12.30;;
54977;SDS011;40873;47.522;19.106;2022-10-31T16:43:01;23.20;;;11.30;;
54977;SDS011;40873;47.522;19.106;2022-10-31T16:45:29;27.27;;;11.82;;
54977;SDS011;40873;47.522;19.106;2022-10-31T16:48:09;28.70;;;13.18;;
54977;SDS011;40873;47.522;19.106;2022-10-31T16:50:38;26.42;;;12.20;;